createdAt,value
2023-11-23T00:01:28.943Z,22.70
2023-11-23T00:03:56.970Z,23.00
2023-11-23T00:06:24.848Z,23.30
2023-11-23T00:08:52.528Z,23.33
2023-11-23T00:11:20.218Z,23.43
2023-11-23T00:13:49.999Z,23.70
2023-11-23T00:16:17.748Z,20.57
2023-11-23T00:18:45.800Z,22.03
2023-11-23T00:21:13.848Z,22.50
2023-11-23T00:23:42.018Z,25.13
2023-11-23T00:26:09.973Z,26.30
2023-11-23T00:28:37.744Z,27.03
2023-11-23T00:31:06.243Z,25.53
2023-11-23T00:33:34.180Z,26.00
2023-11-23T00:36:05.149Z,24.67
2023-11-23T00:38:34.391Z,26.50
2023-11-23T00:41:02.264Z,28.30
2023-11-23T00:43:29.960Z,23.50
2023-11-23T00:45:57.633Z,22.47
2023-11-23T00:48:25.405Z,22.63
2023-11-23T00:50:53.317Z,23.43
2023-11-23T00:53:21.956Z,22.17
2023-11-23T00:55:49.680Z,25.23
2023-11-23T00:58:17.559Z,24.83
2023-11-23T01:00:45.287Z,24.03
2023-11-23T01:03:13.303Z,22.60
2023-11-23T01:05:41.123Z,25.07
2023-11-23T01:08:08.845Z,27.60
2023-11-23T01:10:36.522Z,20.77
2023-11-23T01:13:04.234Z,28.27
2023-11-23T01:15:31.978Z,24.73
2023-11-23T01:18:00.216Z,24.93
2023-11-23T01:20:27.958Z,23.87
2023-11-23T01:22:55.622Z,26.50
2023-11-23T01:25:23.312Z,24.93
2023-11-23T01:27:50.994Z,25.37
2023-11-23T01:30:19.065Z,23.87
2023-11-23T01:32:47.409Z,23.93
2023-11-23T01:35:15.561Z,25.03
2023-11-23T01:37:43.239Z,23.20
2023-11-23T01:40:12.817Z,26.73
2023-11-23T01:42:40.539Z,24.30
2023-11-23T01:45:10.177Z,23.57
2023-11-23T01:47:40.684Z,25.03
2023-11-23T01:50:11.514Z,22.23
2023-11-23T01:52:41.293Z,23.07
2023-11-23T01:55:10.286Z,23.50
2023-11-23T01:57:40.090Z,27.20
2023-11-23T02:00:10.421Z,26.07
2023-11-23T02:02:38.399Z,28.00
2023-11-23T02:05:07.239Z,21.80
2023-11-23T02:07:34.916Z,26.73
2023-11-23T02:10:04.161Z,26.83
2023-11-23T02:12:31.976Z,30.50
2023-11-23T02:15:01.005Z,22.97
2023-11-23T02:17:31.089Z,26.97
2023-11-23T02:19:59.022Z,28.57
2023-11-23T02:22:27.287Z,25.67
2023-11-23T02:24:55.005Z,26.93
2023-11-23T02:27:23.146Z,27.50
2023-11-23T02:29:50.813Z,26.30
2023-11-23T02:32:18.671Z,25.83
2023-11-23T02:34:47.278Z,28.83
2023-11-23T02:37:15.175Z,25.10
2023-11-23T02:39:44.157Z,24.83
2023-11-23T02:42:12.208Z,24.23
2023-11-23T02:44:39.986Z,28.00
2023-11-23T02:47:08.045Z,26.20
2023-11-23T02:49:35.681Z,24.93
2023-11-23T02:52:03.955Z,26.90
2023-11-23T02:54:31.669Z,26.47
2023-11-23T02:56:59.494Z,26.03
2023-11-23T02:59:27.344Z,26.03
2023-11-23T03:01:55.131Z,25.43
2023-11-23T03:04:23.025Z,28.17
2023-11-23T03:06:50.796Z,24.63
2023-11-23T03:09:19.871Z,27.30
2023-11-23T03:11:47.610Z,27.27
2023-11-23T03:14:15.392Z,27.53
2023-11-23T03:16:44.769Z,28.13
2023-11-23T03:19:12.520Z,26.73
2023-11-23T03:21:40.327Z,25.57
2023-11-23T03:24:09.862Z,25.73
2023-11-23T03:26:37.682Z,29.47
2023-11-23T03:29:05.386Z,25.43
2023-11-23T03:31:33.055Z,26.50
2023-11-23T03:34:00.708Z,26.87
2023-11-23T03:36:28.417Z,27.03
2023-11-23T03:38:56.119Z,25.87
2023-11-23T03:41:23.794Z,22.77
2023-11-23T03:43:52.019Z,24.50
2023-11-23T03:46:20.369Z,28.57
2023-11-23T03:48:48.155Z,29.97
2023-11-23T03:51:16.113Z,29.27
2023-11-23T03:53:43.952Z,25.10
2023-11-23T03:56:15.560Z,26.63
2023-11-23T03:58:43.334Z,30.10
2023-11-23T04:01:11.445Z,27.97
2023-11-23T04:03:44.712Z,26.20
2023-11-23T04:06:12.559Z,28.40
2023-11-23T04:08:41.260Z,33.37
2023-11-23T04:11:10.703Z,30.53
2023-11-23T04:13:38.516Z,28.40
2023-11-23T04:16:07.022Z,28.97
2023-11-23T04:18:34.731Z,32.67
2023-11-23T04:21:02.763Z,32.83
2023-11-23T04:23:30.514Z,35.40
2023-11-23T04:25:58.186Z,34.60
2023-11-23T04:28:26.315Z,34.40
2023-11-23T04:30:54.305Z,37.77
2023-11-23T04:33:23.350Z,35.97
2023-11-23T04:35:51.187Z,34.23
2023-11-23T04:38:18.910Z,38.43
2023-11-23T04:40:46.655Z,36.27
2023-11-23T04:43:14.735Z,36.33
2023-11-23T04:45:42.656Z,35.40
2023-11-23T04:48:10.805Z,38.43
2023-11-23T04:50:38.627Z,36.33
2023-11-23T04:53:06.313Z,39.17
2023-11-23T04:55:33.976Z,36.17
2023-11-23T04:58:02.386Z,37.90
2023-11-23T05:00:30.900Z,43.53
2023-11-23T05:02:58.731Z,42.53
2023-11-23T05:05:26.863Z,41.07
2023-11-23T05:07:54.545Z,41.83
2023-11-23T05:10:22.402Z,43.87
2023-11-23T05:12:52.333Z,37.33
2023-11-23T05:15:20.226Z,42.17
2023-11-23T05:17:48.090Z,42.63
2023-11-23T05:20:17.253Z,44.23
2023-11-23T05:22:46.228Z,41.07
2023-11-23T05:25:15.234Z,40.10
2023-11-23T05:27:42.939Z,40.17
2023-11-23T05:30:12.598Z,38.93
2023-11-23T05:32:40.350Z,39.17
2023-11-23T05:35:10.244Z,40.30
2023-11-23T05:37:37.925Z,43.10
2023-11-23T05:40:09.450Z,40.50
2023-11-23T05:42:37.166Z,38.87
2023-11-23T05:45:06.490Z,39.00
2023-11-23T05:47:34.442Z,38.37
2023-11-23T05:50:03.455Z,41.07
2023-11-23T05:52:31.428Z,37.57
2023-11-23T05:54:59.531Z,37.33
2023-11-23T05:57:27.796Z,40.23
2023-11-23T05:59:55.520Z,40.40
2023-11-23T06:02:23.317Z,40.50
2023-11-23T06:04:51.187Z,37.57
2023-11-23T06:07:18.986Z,37.53
2023-11-23T06:09:46.691Z,34.67
2023-11-23T06:12:14.484Z,40.27
2023-11-23T06:14:42.176Z,35.20
2023-11-23T06:17:10.886Z,36.07
2023-11-23T06:19:38.868Z,35.37
2023-11-23T06:22:06.567Z,34.30
2023-11-23T06:24:34.252Z,39.57
2023-11-23T06:27:02.369Z,37.53
2023-11-23T06:29:30.253Z,37.43
2023-11-23T06:32:00.568Z,34.63
2023-11-23T06:34:29.696Z,36.73
2023-11-23T06:36:57.348Z,35.30
2023-11-23T06:39:25.488Z,35.13
2023-11-23T06:41:53.687Z,38.43
2023-11-23T06:44:21.754Z,34.83
2023-11-23T06:46:49.489Z,39.03
2023-11-23T06:49:17.262Z,35.67
2023-11-23T06:51:45.001Z,36.13
2023-11-23T06:54:12.809Z,38.40
2023-11-23T06:56:40.505Z,33.90
2023-11-23T06:59:08.845Z,34.63
2023-11-23T07:01:36.629Z,36.00
2023-11-23T07:04:05.148Z,35.50
2023-11-23T07:06:33.067Z,31.93
2023-11-23T07:09:00.945Z,32.67
2023-11-23T07:11:28.981Z,29.63
2023-11-23T07:13:56.666Z,30.97
2023-11-23T07:16:24.444Z,31.47
2023-11-23T07:18:52.245Z,32.57
2023-11-23T07:21:20.345Z,34.20
2023-11-23T07:23:48.063Z,31.10
2023-11-23T07:26:15.864Z,31.73
2023-11-23T07:28:43.937Z,30.37
2023-11-23T07:31:11.672Z,37.43
2023-11-23T07:33:39.887Z,30.67
2023-11-23T07:36:10.194Z,27.20
2023-11-23T07:38:37.960Z,28.20
2023-11-23T07:41:07.060Z,28.37
2023-11-23T07:43:34.779Z,29.07
2023-11-23T07:46:02.847Z,29.07
2023-11-23T07:48:31.585Z,23.50
2023-11-23T07:50:59.311Z,25.27
2023-11-23T07:53:30.802Z,26.50
2023-11-23T07:55:58.994Z,30.10
2023-11-23T07:58:26.838Z,28.13
2023-11-23T08:00:54.989Z,26.90
2023-11-23T08:03:22.862Z,26.37
2023-11-23T08:05:50.840Z,23.10
2023-11-23T08:08:18.677Z,27.60
2023-11-23T08:10:47.020Z,25.10
2023-11-23T08:13:16.568Z,24.60
2023-11-23T08:15:44.322Z,25.33
2023-11-23T08:18:12.225Z,26.73
2023-11-23T08:20:39.944Z,25.63
2023-11-23T08:23:09.484Z,24.47
2023-11-23T08:25:38.150Z,25.70
2023-11-23T08:28:05.875Z,26.63
2023-11-23T08:30:33.676Z,23.53
2023-11-23T08:33:01.565Z,23.20
2023-11-23T08:35:29.604Z,21.67
2023-11-23T08:37:58.122Z,22.33
2023-11-23T08:40:26.094Z,24.43
2023-11-23T08:42:54.052Z,27.07
2023-11-23T08:45:21.842Z,23.93
2023-11-23T08:47:49.795Z,25.63
2023-11-23T08:50:17.987Z,21.53
2023-11-23T08:52:45.728Z,20.17
2023-11-23T08:55:14.197Z,20.33
2023-11-23T08:57:52.987Z,22.40
2023-11-23T09:00:24.502Z,21.03
2023-11-23T09:02:53.948Z,21.30
2023-11-23T09:05:22.385Z,19.73
2023-11-23T09:07:50.367Z,18.63
2023-11-23T09:10:18.272Z,17.63
2023-11-23T09:12:46.031Z,19.00
2023-11-23T09:15:14.098Z,19.43
2023-11-23T09:17:42.014Z,18.10
2023-11-23T09:20:13.471Z,19.47
2023-11-23T09:22:43.364Z,20.83
2023-11-23T09:25:11.977Z,16.83
2023-11-23T09:27:39.863Z,18.93
2023-11-23T09:30:09.595Z,18.87
2023-11-23T09:32:38.577Z,19.70
2023-11-23T09:35:10.625Z,19.63
2023-11-23T09:37:38.897Z,16.97
2023-11-23T09:40:17.161Z,19.00
2023-11-23T09:42:47.086Z,21.00
2023-11-23T09:45:22.297Z,18.77
2023-11-23T09:47:54.443Z,20.80
2023-11-23T09:50:22.260Z,19.27
2023-11-23T09:52:51.706Z,17.33
2023-11-23T09:55:21.669Z,18.50
2023-11-23T09:57:49.912Z,16.80
2023-11-23T10:00:21.645Z,21.07
2023-11-23T10:02:50.454Z,20.83
2023-11-23T10:05:18.795Z,20.97
2023-11-23T10:07:47.680Z,20.27
2023-11-23T10:10:15.719Z,20.50
2023-11-23T10:12:45.318Z,18.93
2023-11-23T10:15:13.607Z,19.83
2023-11-23T10:17:42.613Z,17.33
2023-11-23T10:20:15.662Z,17.40
2023-11-23T10:26:24.197Z,18.57
2023-11-23T10:28:51.882Z,20.47
2023-11-23T10:31:20.394Z,20.13
2023-11-23T10:33:48.972Z,20.27
2023-11-23T10:36:18.500Z,18.60
2023-11-23T10:38:47.424Z,17.67
2023-11-23T10:41:16.871Z,19.30
2023-11-23T10:43:48.937Z,15.97
2023-11-23T10:46:19.260Z,19.00
2023-11-23T10:48:50.584Z,17.17
2023-11-23T10:51:22.284Z,16.57
2023-11-23T10:53:50.541Z,22.17
2023-11-23T10:56:22.412Z,16.90
2023-11-23T10:58:54.645Z,15.50
2023-11-23T11:01:26.646Z,16.87
2023-11-23T11:03:56.322Z,16.50
2023-11-23T11:06:24.216Z,16.40
2023-11-23T11:08:52.591Z,17.20
2023-11-23T11:11:23.219Z,18.07
2023-11-23T11:13:59.136Z,19.03
2023-11-23T11:16:34.928Z,15.33
2023-11-23T11:19:06.972Z,13.47
2023-11-23T11:21:44.485Z,16.33
2023-11-23T11:24:19.450Z,12.77
2023-11-23T11:26:47.742Z,14.23
2023-11-23T11:29:17.494Z,17.70
2023-11-23T11:31:48.845Z,18.17
2023-11-23T11:34:18.101Z,15.00
2023-11-23T11:36:50.653Z,14.40
2023-11-23T11:39:18.545Z,15.77
2023-11-23T11:41:49.236Z,15.27
2023-11-23T11:44:17.288Z,13.40
2023-11-23T11:46:45.192Z,15.37
2023-11-23T11:49:13.173Z,19.13
2023-11-23T11:51:43.040Z,19.40
2023-11-23T11:54:10.937Z,15.53
2023-11-23T11:56:39.493Z,16.53
2023-11-23T11:59:08.509Z,17.23
2023-11-23T12:01:36.341Z,14.37
2023-11-23T12:04:04.791Z,14.17
2023-11-23T12:06:35.793Z,14.60
2023-11-23T12:09:04.750Z,14.97
2023-11-23T12:11:34.176Z,15.40
2023-11-23T12:14:02.972Z,16.13
2023-11-23T12:16:34.586Z,15.13
2023-11-23T12:19:02.426Z,13.43
2023-11-23T12:21:32.242Z,17.27
2023-11-23T12:24:01.067Z,14.50
2023-11-23T12:26:28.891Z,13.80
2023-11-23T12:28:56.693Z,16.07
2023-11-23T12:31:24.410Z,14.47
2023-11-23T12:33:52.144Z,17.93
2023-11-23T12:36:19.986Z,14.57
2023-11-23T12:38:47.743Z,15.87
2023-11-23T12:41:15.451Z,14.00
2023-11-23T12:43:43.352Z,13.23
2023-11-23T12:46:11.446Z,16.07
2023-11-23T12:48:39.462Z,14.97
2023-11-23T12:51:08.200Z,15.17
2023-11-23T12:53:35.871Z,14.83
2023-11-23T12:56:04.748Z,14.17
2023-11-23T12:58:32.574Z,14.63
2023-11-23T13:01:00.987Z,14.83
2023-11-23T13:03:28.703Z,13.67
2023-11-23T13:05:56.563Z,14.57
2023-11-23T13:08:24.801Z,15.40
2023-11-23T13:10:52.679Z,13.47
2023-11-23T13:13:20.467Z,16.93
2023-11-23T13:15:48.468Z,12.10
2023-11-23T13:18:16.261Z,14.47
2023-11-23T13:20:46.007Z,13.73
2023-11-23T13:23:15.249Z,14.10
2023-11-23T13:25:45.398Z,13.30
2023-11-23T13:28:13.896Z,13.00
2023-11-23T13:30:41.675Z,13.17
2023-11-23T13:33:15.907Z,13.57
2023-11-23T13:35:43.774Z,11.60
2023-11-23T13:38:11.489Z,12.97
2023-11-23T13:40:40.962Z,13.70
2023-11-23T13:43:09.012Z,14.03
2023-11-23T13:45:37.289Z,12.20
2023-11-23T13:48:07.718Z,13.37
2023-11-23T13:50:42.049Z,9.50
2023-11-23T13:53:11.486Z,14.83
2023-11-23T13:55:39.757Z,10.97
2023-11-23T13:58:07.690Z,11.87
2023-11-23T14:00:35.444Z,8.00
2023-11-23T14:03:04.632Z,8.03
2023-11-23T14:05:32.884Z,10.17
2023-11-23T14:08:00.555Z,10.07
2023-11-23T14:10:28.289Z,11.33
2023-11-23T14:12:57.466Z,12.07
2023-11-23T14:15:26.159Z,7.80
2023-11-23T14:17:54.161Z,11.00
2023-11-23T14:20:24.274Z,7.70
2023-11-23T14:22:52.078Z,9.73
2023-11-23T14:25:21.099Z,12.40
2023-11-23T14:27:49.475Z,7.57
2023-11-23T14:30:18.164Z,7.87
2023-11-23T14:32:47.061Z,9.17
2023-11-23T14:35:15.542Z,6.70
2023-11-23T14:37:44.049Z,7.80
2023-11-23T14:40:16.651Z,8.87
2023-11-23T14:42:55.684Z,8.67
2023-11-23T14:45:26.942Z,8.93
2023-11-23T14:47:56.372Z,8.30
2023-11-23T14:50:28.746Z,7.60
2023-11-23T14:52:56.788Z,6.33
2023-11-23T14:55:24.510Z,9.37
2023-11-23T14:57:52.429Z,8.77
2023-11-23T15:00:23.961Z,9.33
2023-11-23T15:02:52.719Z,6.20
2023-11-23T15:05:20.678Z,7.33
2023-11-23T15:07:48.417Z,7.47
2023-11-23T15:10:19.401Z,7.77
2023-11-23T15:12:51.770Z,6.50
2023-11-23T15:15:20.303Z,5.87
2023-11-23T15:17:49.357Z,7.83
2023-11-23T15:20:19.160Z,4.93
2023-11-23T15:22:46.998Z,6.50
2023-11-23T15:25:15.169Z,7.10
2023-11-23T15:27:44.433Z,7.27
2023-11-23T15:30:13.615Z,9.83
2023-11-23T15:32:42.807Z,8.27
2023-11-23T15:35:11.421Z,7.87
2023-11-23T15:37:39.162Z,8.40
2023-11-23T15:40:17.124Z,9.50
2023-11-23T15:42:46.333Z,6.57
2023-11-23T15:45:15.434Z,5.87
2023-11-23T15:47:45.581Z,7.20
2023-11-23T15:50:13.433Z,7.53
2023-11-23T15:52:42.042Z,9.60
2023-11-23T15:55:11.901Z,6.07
2023-11-23T15:57:40.142Z,7.67
2023-11-23T16:00:12.082Z,8.83
2023-11-23T16:02:40.903Z,10.97
2023-11-23T16:05:11.435Z,8.10
2023-11-23T16:07:39.301Z,7.67
2023-11-23T16:10:09.578Z,9.40
2023-11-23T16:12:37.342Z,6.93
2023-11-23T16:15:07.354Z,5.73
2023-11-23T16:17:35.107Z,8.40
2023-11-23T16:20:03.284Z,10.97
2023-11-23T16:22:31.044Z,11.30
2023-11-23T16:24:58.740Z,10.97
2023-11-23T16:27:26.514Z,10.97
2023-11-23T16:29:54.259Z,9.23
2023-11-23T16:32:23.137Z,9.87
2023-11-23T16:34:51.175Z,5.80
2023-11-23T16:37:19.285Z,8.63
2023-11-23T16:39:47.617Z,11.50
2023-11-23T16:42:15.373Z,7.80
2023-11-23T16:44:43.181Z,6.73
2023-11-23T16:47:11.496Z,9.03
2023-11-23T16:49:39.339Z,7.57
2023-11-23T16:52:08.812Z,6.57
2023-11-23T16:54:38.593Z,8.83
2023-11-23T16:57:08.354Z,9.63
2023-11-23T16:59:36.801Z,9.77
2023-11-23T17:02:05.599Z,16.03
2023-11-23T17:04:33.670Z,7.97
2023-11-23T17:07:01.508Z,7.57
2023-11-23T17:09:29.346Z,9.83
2023-11-23T17:11:57.469Z,6.90
2023-11-23T17:14:27.122Z,13.27
2023-11-23T17:16:54.909Z,7.20
2023-11-23T17:19:24.541Z,10.10
2023-11-23T17:21:57.132Z,9.23
2023-11-23T17:24:25.002Z,7.80
2023-11-23T17:26:53.183Z,9.73
2023-11-23T17:29:21.363Z,7.73
2023-11-23T17:31:54.915Z,6.83
2023-11-23T17:34:23.169Z,10.07
2023-11-23T17:36:51.086Z,8.53
2023-11-23T17:39:19.114Z,8.77
2023-11-23T17:41:47.006Z,8.07
2023-11-23T17:44:15.075Z,10.43
2023-11-23T17:46:44.020Z,12.10
2023-11-23T17:49:14.246Z,10.90
2023-11-23T17:51:43.715Z,11.67
2023-11-23T17:54:12.032Z,8.53
2023-11-23T17:56:40.400Z,9.63
2023-11-23T17:59:24.879Z,10.03
2023-11-23T18:02:00.502Z,9.07
2023-11-23T18:04:28.765Z,10.10
2023-11-23T18:06:56.642Z,8.33
2023-11-23T18:09:24.614Z,10.70
2023-11-23T18:11:52.486Z,10.00
2023-11-23T18:14:20.911Z,8.33
2023-11-23T18:16:48.805Z,9.30
2023-11-23T18:19:16.570Z,9.40
2023-11-23T18:21:44.686Z,7.90
2023-11-23T18:24:12.632Z,9.47
2023-11-23T18:26:40.765Z,9.13
2023-11-23T18:29:08.601Z,6.93
2023-11-23T18:31:36.872Z,8.53
2023-11-23T18:34:04.969Z,5.73
2023-11-23T18:36:33.554Z,8.30
2023-11-23T18:39:01.547Z,7.07
2023-11-23T18:41:29.510Z,5.60
2023-11-23T18:43:57.454Z,7.30
2023-11-23T18:46:25.336Z,5.37
2023-11-23T18:48:53.264Z,6.93
2023-11-23T18:51:21.488Z,7.73
2023-11-23T18:53:49.447Z,7.03
2023-11-23T18:56:18.828Z,6.50
2023-11-23T18:58:47.461Z,6.03
2023-11-23T19:01:16.078Z,7.30
2023-11-23T19:03:45.339Z,7.43
2023-11-23T19:06:13.316Z,7.57
2023-11-23T19:08:42.090Z,7.10
2023-11-23T19:11:14.037Z,9.17
2023-11-23T19:13:42.011Z,6.30
2023-11-23T19:16:10.574Z,9.03
2023-11-23T19:18:42.318Z,8.90
2023-11-23T19:21:13.415Z,6.90
2023-11-23T19:23:42.767Z,7.10
2023-11-23T19:26:12.968Z,8.10
2023-11-23T19:28:46.009Z,6.00
2023-11-23T19:31:15.692Z,6.00
2023-11-23T19:33:44.583Z,8.70
2023-11-23T19:36:15.230Z,7.83
2023-11-23T19:38:44.096Z,7.63
2023-11-23T19:41:13.510Z,6.13
2023-11-23T19:43:42.410Z,6.40
2023-11-23T19:46:13.193Z,4.53
2023-11-23T19:48:42.631Z,5.00
2023-11-23T19:51:11.318Z,7.23
2023-11-23T19:53:41.941Z,6.00
2023-11-23T19:56:09.870Z,4.77
2023-11-23T19:58:37.760Z,6.97
2023-11-23T20:01:06.042Z,5.57
2023-11-23T20:03:34.292Z,5.93
2023-11-23T20:06:03.377Z,5.43
2023-11-23T20:08:32.738Z,4.03
2023-11-23T20:11:01.247Z,7.33
2023-11-23T20:13:29.215Z,8.33
2023-11-23T20:15:57.938Z,5.90
2023-11-23T20:18:26.013Z,3.07
2023-11-23T20:20:54.271Z,4.73
2023-11-23T20:23:22.138Z,5.87
2023-11-23T20:25:49.921Z,5.40
2023-11-23T20:28:18.042Z,5.90
2023-11-23T20:30:47.198Z,3.07
2023-11-23T20:33:17.680Z,4.73
2023-11-23T20:35:47.154Z,5.97
2023-11-23T20:38:15.116Z,5.73
2023-11-23T20:40:45.341Z,4.77
2023-11-23T20:43:14.458Z,6.27
2023-11-23T20:45:42.565Z,6.13
2023-11-23T20:48:10.616Z,5.17
2023-11-23T20:50:39.574Z,6.93
2023-11-23T20:53:08.095Z,9.30
2023-11-23T20:55:37.374Z,4.23
2023-11-23T20:58:06.453Z,5.50
2023-11-23T21:00:35.013Z,6.17
2023-11-23T21:03:05.850Z,5.80
2023-11-23T21:05:35.376Z,7.13
2023-11-23T21:08:04.450Z,7.77
2023-11-23T21:10:33.409Z,9.23
2023-11-23T21:13:01.504Z,7.87
2023-11-23T21:15:29.495Z,8.17
2023-11-23T21:17:57.332Z,4.73
2023-11-23T21:20:25.476Z,6.70
2023-11-23T21:22:53.432Z,5.73
2023-11-23T21:25:21.394Z,7.93
2023-11-23T21:27:50.477Z,5.93
2023-11-23T21:30:19.505Z,8.83
2023-11-23T21:32:48.039Z,7.03
2023-11-23T21:35:16.749Z,6.63
2023-11-23T21:37:48.317Z,7.33
2023-11-23T21:40:17.370Z,8.90
2023-11-23T21:42:45.221Z,6.30
2023-11-23T21:45:13.370Z,12.77
2023-11-23T21:47:41.336Z,12.67
2023-11-23T21:50:11.214Z,11.70
2023-11-23T21:52:39.776Z,5.50
2023-11-23T21:55:08.984Z,11.00
2023-11-23T21:57:36.749Z,9.90
2023-11-23T22:00:08.768Z,12.30
2023-11-23T22:02:36.596Z,11.20
2023-11-23T22:05:05.628Z,12.53
2023-11-23T22:07:33.341Z,10.47
2023-11-23T22:10:01.058Z,9.97
2023-11-23T22:12:29.434Z,7.40
2023-11-23T22:14:57.150Z,9.10
2023-11-23T22:17:26.314Z,14.87
2023-11-23T22:19:55.291Z,10.33
2023-11-23T22:22:24.968Z,12.90
2023-11-23T22:24:53.404Z,15.70
2023-11-23T22:27:23.253Z,21.30
2023-11-23T22:29:52.055Z,11.93
2023-11-23T22:32:20.507Z,14.23
2023-11-23T22:34:49.608Z,9.13
2023-11-23T22:37:19.336Z,14.07
2023-11-23T22:39:48.417Z,13.90
2023-11-23T22:42:17.783Z,13.27
2023-11-23T22:44:46.735Z,8.70
2023-11-23T22:47:14.526Z,10.33
2023-11-23T22:49:42.206Z,20.63
2023-11-23T22:52:09.911Z,17.17
2023-11-23T22:54:38.411Z,14.53
2023-11-23T22:57:06.494Z,7.80
2023-11-23T22:59:34.223Z,8.60
2023-11-23T23:02:02.767Z,5.83
2023-11-23T23:04:31.861Z,9.97
2023-11-23T23:06:59.638Z,7.87
2023-11-23T23:09:28.066Z,8.27
2023-11-23T23:11:56.501Z,6.57
2023-11-23T23:14:24.575Z,6.83
2023-11-23T23:16:52.271Z,8.27
2023-11-23T23:19:20.038Z,5.63
2023-11-23T23:21:47.736Z,5.77
2023-11-23T23:24:15.690Z,6.40
2023-11-23T23:26:43.383Z,7.20
2023-11-23T23:29:12.358Z,4.73
2023-11-23T23:31:42.118Z,6.87
2023-11-23T23:34:10.768Z,5.70
2023-11-23T23:36:38.528Z,5.37
2023-11-23T23:39:06.329Z,6.27
2023-11-23T23:41:34.011Z,10.13
2023-11-23T23:44:03.725Z,6.47
2023-11-23T23:46:31.464Z,4.73
2023-11-23T23:49:01.614Z,7.33
2023-11-23T23:51:29.633Z,9.30
2023-11-23T23:53:57.306Z,8.93
2023-11-23T23:56:24.964Z,6.27
2023-11-23T23:58:53.413Z,8.50
